Terminal Aerodrome Forecast
Issued by NWS Houston/Galveston, TX

Home | Current Version | Previous Version | Text Only | Print | Product List | Glossary On
Versions: 1 2 3 4 5 6 7 8 9 10 11 12 13 14 15 16 17 18 19
000
FTUS44 KHGX 191740
TAFCLL
TAF
KCLL 191740Z 1918/2018 18007KT P6SM FEW035
     FM200000 14009KT P6SM SKC
     FM200900 21003KT P6SM SCT025
      TEMPO 2010/2014 SCT008 BKN015
     FM201400 19003KT P6SM FEW015=

USA.gov is the U.S. government's official web portal to all federal, state and local government web resources and services.